createdAt,value
2022-09-02T00:00:42.464Z,57.81
2022-09-02T00:06:03.788Z,57.94
2022-09-02T00:11:30.055Z,58.23
2022-09-02T00:16:53.902Z,58.32
2022-09-02T00:22:14.638Z,58.47
2022-09-02T00:27:35.057Z,58.63
2022-09-02T00:32:55.498Z,58.61
2022-09-02T00:38:16.310Z,58.49
2022-09-02T00:43:45.965Z,58.85
2022-09-02T00:49:26.911Z,58.69
2022-09-02T00:54:54.654Z,58.89
2022-09-02T01:00:20.357Z,59.05
2022-09-02T01:05:45.855Z,59.35
2022-09-02T01:11:06.677Z,59.55
2022-09-02T01:16:33.921Z,59.33
2022-09-02T01:21:57.019Z,59.39
2022-09-02T01:27:20.927Z,59.62
2022-09-02T01:32:41.344Z,59.85
2022-09-02T01:38:02.670Z,60.16
2022-09-02T01:43:26.536Z,60.30
2022-09-02T01:48:47.508Z,60.49
2022-09-02T01:54:08.596Z,61.10
2022-09-02T01:59:29.711Z,61.47
2022-09-02T02:04:50.842Z,61.75
2022-09-02T02:10:14.163Z,62.07
2022-09-02T02:15:38.931Z,62.15
2022-09-02T02:20:59.835Z,62.41
2022-09-02T02:26:20.521Z,62.65
2022-09-02T02:31:42.496Z,62.80
2022-09-02T02:37:06.349Z,62.96
2022-09-02T02:42:39.575Z,62.78
2022-09-02T02:48:00.184Z,63.05
2022-09-02T02:53:20.849Z,63.17
2022-09-02T02:58:41.957Z,63.05
2022-09-02T03:04:03.916Z,63.18
2022-09-02T03:09:24.463Z,63.34
2022-09-02T03:14:45.980Z,63.33
2022-09-02T03:20:08.451Z,63.54
2022-09-02T03:25:36.111Z,63.61
2022-09-02T03:31:04.476Z,63.62
2022-09-02T03:36:39.649Z,63.89
2022-09-02T03:42:02.478Z,63.86
2022-09-02T03:47:30.716Z,63.89
2022-09-02T03:52:53.263Z,63.94
2022-09-02T03:58:14.813Z,64.03
2022-09-02T04:03:37.545Z,64.02
2022-09-02T04:08:57.977Z,64.17
2022-09-02T04:14:19.599Z,64.32
2022-09-02T04:19:41.349Z,64.37
2022-09-02T04:25:02.854Z,64.37
2022-09-02T04:30:25.303Z,64.32
2022-09-02T04:35:52.250Z,64.40
2022-09-02T04:41:17.951Z,64.37
2022-09-02T04:46:39.393Z,64.38
2022-09-02T04:52:04.003Z,64.34
2022-09-02T04:57:26.507Z,64.14
2022-09-02T05:02:48.073Z,64.04
2022-09-02T05:08:10.045Z,64.13
2022-09-02T05:13:31.657Z,64.21
2022-09-02T05:18:54.357Z,64.19
2022-09-02T05:24:18.198Z,64.27
2022-09-02T05:29:38.825Z,64.18
2022-09-02T05:35:02.128Z,64.52
2022-09-02T05:40:23.216Z,64.47
2022-09-02T05:45:47.459Z,64.63
2022-09-02T05:51:08.690Z,64.51
2022-09-02T05:56:29.735Z,64.43
2022-09-02T06:01:51.631Z,64.38
2022-09-02T06:07:14.180Z,64.38
2022-09-02T06:12:42.441Z,64.13
2022-09-02T06:18:03.932Z,64.10
2022-09-02T06:23:27.141Z,63.72
2022-09-02T06:28:47.920Z,63.93
2022-09-02T06:34:13.766Z,63.92
2022-09-02T06:39:37.678Z,63.77
2022-09-02T06:44:59.039Z,63.77
2022-09-02T06:50:20.463Z,63.54
2022-09-02T06:55:43.777Z,63.25
2022-09-02T07:01:05.130Z,63.06
2022-09-02T07:06:27.470Z,62.79
2022-09-02T07:11:51.005Z,62.58
2022-09-02T07:17:21.676Z,62.21
2022-09-02T07:22:46.563Z,61.76
2022-09-02T07:28:11.771Z,60.92
2022-09-02T07:33:33.587Z,60.41
2022-09-02T07:38:55.325Z,59.55
2022-09-02T07:44:19.619Z,59.12
2022-09-02T07:55:23.949Z,57.52
2022-09-02T08:00:44.987Z,57.10
2022-09-02T08:06:06.939Z,55.99
2022-09-02T08:11:27.467Z,54.74
2022-09-02T08:16:48.529Z,53.81
2022-09-02T08:22:09.159Z,52.54
2022-09-02T08:27:29.779Z,51.66
2022-09-02T08:32:50.133Z,50.97
2022-09-02T08:38:10.823Z,49.74
2022-09-02T08:43:40.248Z,48.37
2022-09-02T08:49:22.308Z,46.76
2022-09-02T08:54:48.961Z,45.84
2022-09-02T09:00:10.459Z,44.31
2022-09-02T09:05:42.545Z,43.13
2022-09-02T09:11:14.173Z,41.50
2022-09-02T09:16:58.283Z,40.14
2022-09-02T09:22:21.955Z,38.86
2022-09-02T09:27:46.020Z,38.34
2022-09-02T09:33:20.381Z,37.85
2022-09-02T09:38:41.289Z,37.26
2022-09-02T09:44:02.412Z,36.11
2022-09-02T09:49:27.361Z,35.01
2022-09-02T09:54:52.718Z,35.03
2022-09-02T10:00:35.324Z,34.10
2022-09-02T10:05:59.871Z,32.24
2022-09-02T10:11:26.837Z,31.35
2022-09-02T10:17:09.387Z,27.16
2022-09-02T10:22:59.509Z,24.68
2022-09-02T10:28:35.070Z,24.63
2022-09-02T10:34:15.579Z,26.38
2022-09-02T10:40:15.113Z,26.42
2022-09-02T10:45:43.949Z,26.71
2022-09-02T10:51:15.628Z,26.91
2022-09-02T10:56:58.352Z,26.00
2022-09-02T11:02:28.218Z,25.41
2022-09-02T11:08:03.362Z,23.18
2022-09-02T11:14:00.596Z,22.45
2022-09-02T11:19:49.431Z,21.83
2022-09-02T11:25:21.022Z,22.38
2022-09-02T11:30:55.854Z,21.89
2022-09-02T11:36:17.729Z,21.90
2022-09-02T11:41:53.875Z,21.10
2022-09-02T11:47:30.231Z,21.31
2022-09-02T11:53:04.309Z,21.26
2022-09-02T11:58:43.579Z,20.55
2022-09-02T12:09:56.007Z,20.84
2022-09-02T12:15:18.420Z,20.84
2022-09-02T12:20:41.500Z,20.84
2022-09-02T12:26:06.973Z,20.85
2022-09-02T12:31:45.619Z,20.56
2022-09-02T12:37:06.782Z,20.76
2022-09-02T12:42:33.854Z,20.61
2022-09-02T12:48:07.031Z,20.58
2022-09-02T12:53:42.981Z,20.93
2022-09-02T12:59:04.265Z,20.90
2022-09-02T13:04:38.892Z,20.88
2022-09-02T13:10:22.093Z,21.16
2022-09-02T13:16:01.611Z,21.83
2022-09-02T13:21:41.379Z,21.26
2022-09-02T13:27:12.070Z,21.13
2022-09-02T13:32:34.211Z,21.29
2022-09-02T13:38:02.712Z,22.04
2022-09-02T13:43:26.824Z,22.24
2022-09-02T13:48:47.347Z,22.82
2022-09-02T13:54:23.739Z,22.74
2022-09-02T13:59:50.030Z,23.50
2022-09-02T14:05:22.052Z,23.23
2022-09-02T14:10:44.041Z,23.50
2022-09-02T14:16:29.355Z,24.34
2022-09-02T14:21:56.273Z,24.31
2022-09-02T14:27:19.157Z,24.91
2022-09-02T14:32:39.912Z,25.60
2022-09-02T14:38:00.636Z,25.43
2022-09-02T14:43:21.107Z,25.89
2022-09-02T14:48:41.966Z,26.48
2022-09-02T14:54:03.316Z,27.18
2022-09-02T14:59:23.564Z,27.11
2022-09-02T15:04:44.338Z,27.29
2022-09-02T15:10:09.152Z,27.98
2022-09-02T15:15:30.078Z,27.58
2022-09-02T15:20:51.612Z,27.68
2022-09-02T15:26:12.940Z,27.77
2022-09-02T15:31:35.208Z,28.58
2022-09-02T15:36:56.260Z,28.46
2022-09-02T15:42:18.467Z,28.50
2022-09-02T15:47:39.142Z,28.53
2022-09-02T15:52:59.652Z,27.21
2022-09-02T15:58:20.280Z,25.78
2022-09-02T16:03:41.092Z,26.96
2022-09-02T16:09:05.467Z,27.52
2022-09-02T16:14:26.131Z,27.83
2022-09-02T16:19:46.853Z,28.51
2022-09-02T16:25:07.899Z,28.47
2022-09-02T16:30:29.915Z,28.86
2022-09-02T16:35:50.506Z,29.49
2022-09-02T16:41:30.215Z,29.16
2022-09-02T16:46:52.243Z,30.05
2022-09-02T16:52:13.941Z,30.42
2022-09-02T16:57:34.520Z,30.84
2022-09-02T17:02:55.281Z,31.88
2022-09-02T17:08:16.674Z,32.31
2022-09-02T17:14:09.759Z,33.08
2022-09-02T17:19:32.667Z,33.90
2022-09-02T17:24:53.830Z,35.14
2022-09-02T17:30:15.745Z,35.47
2022-09-02T17:35:36.485Z,36.13
2022-09-02T17:41:15.751Z,36.70
2022-09-02T17:46:36.165Z,37.21
2022-09-02T17:51:59.138Z,37.61
2022-09-02T17:57:42.738Z,38.89
2022-09-02T18:03:03.613Z,39.43
2022-09-02T18:08:28.531Z,40.28
2022-09-02T18:14:31.973Z,40.84
2022-09-02T18:20:09.393Z,41.41
2022-09-02T18:25:44.159Z,41.92
2022-09-02T18:31:30.742Z,42.39
2022-09-02T18:37:06.251Z,42.80
2022-09-02T18:43:02.064Z,43.23
2022-09-02T18:48:26.484Z,44.03
2022-09-02T18:53:51.315Z,44.39
2022-09-02T18:59:18.957Z,44.73
2022-09-02T19:04:46.431Z,44.93
2022-09-02T19:10:08.964Z,45.41
2022-09-02T19:15:29.511Z,45.73
2022-09-02T19:20:50.214Z,46.06
2022-09-02T19:26:10.842Z,46.60
2022-09-02T19:31:31.910Z,47.24
2022-09-02T19:36:52.790Z,47.60
2022-09-02T19:42:13.505Z,48.25
2022-09-02T19:53:25.621Z,48.96
2022-09-02T19:58:46.689Z,49.32
2022-09-02T20:04:07.147Z,49.80
2022-09-02T20:09:29.367Z,50.26
2022-09-02T20:14:50.304Z,50.73
2022-09-02T20:20:22.608Z,51.23
2022-09-02T20:26:10.240Z,51.78
2022-09-02T20:31:55.818Z,52.16
2022-09-02T20:37:51.018Z,52.60
2022-09-02T20:43:30.526Z,53.06
2022-09-02T20:49:36.467Z,53.45
2022-09-02T20:55:16.822Z,53.91
2022-09-02T21:00:37.681Z,54.35
2022-09-02T21:06:02.196Z,54.66
2022-09-02T21:11:23.249Z,55.05
2022-09-02T21:16:51.520Z,55.56
2022-09-02T21:22:22.741Z,56.04
2022-09-02T21:27:51.022Z,56.53
2022-09-02T21:33:15.841Z,56.87
2022-09-02T21:38:44.611Z,57.45
2022-09-02T21:44:27.892Z,58.17
2022-09-02T21:50:00.187Z,57.79
2022-09-02T21:56:03.152Z,58.50
2022-09-02T22:01:44.873Z,58.97
2022-09-02T22:07:22.573Z,58.91
2022-09-02T22:12:52.170Z,59.02
2022-09-02T22:18:30.226Z,59.38
2022-09-02T22:23:54.532Z,59.55
2022-09-02T22:29:52.796Z,59.96
2022-09-02T22:35:27.791Z,60.19
2022-09-02T22:41:01.769Z,60.42
2022-09-02T22:46:55.693Z,60.81
2022-09-02T22:52:54.697Z,60.84
2022-09-02T22:58:21.318Z,60.93
2022-09-02T23:04:24.661Z,61.39
2022-09-02T23:09:48.944Z,61.42
2022-09-02T23:15:34.318Z,61.69
2022-09-02T23:21:01.047Z,61.73
2022-09-02T23:26:45.132Z,61.95
2022-09-02T23:32:23.932Z,62.17
2022-09-02T23:38:03.947Z,62.52
2022-09-02T23:43:24.408Z,62.42
2022-09-02T23:49:11.231Z,62.90
2022-09-02T23:54:31.768Z,62.98
